sensor_id;sensor_type;location;lat;lon;timestamp;P1;durP1;ratioP1;P2;durP2;ratioP2
7289;SDS011;63176;52.678;13.250;2023-03-12T00:00:39;0.47;;;0.47;;
7289;SDS011;63176;52.678;13.250;2023-03-12T00:03:06;1.45;;;1.00;;
7289;SDS011;63176;52.678;13.250;2023-03-12T00:05:31;0.50;;;0.40;;
7289;SDS011;63176;52.678;13.250;2023-03-12T00:07:57;0.97;;;0.70;;
7289;SDS011;63176;52.678;13.250;2023-03-12T00:10:26;1.55;;;0.55;;
7289;SDS011;63176;52.678;13.250;2023-03-12T00:12:52;0.60;;;0.60;;
7289;SDS011;63176;52.678;13.250;2023-03-12T00:15:18;2.30;;;0.70;;
7289;SDS011;63176;52.678;13.250;2023-03-12T00:17:43;0.50;;;0.40;;
7289;SDS011;63176;52.678;13.250;2023-03-12T00:20:09;1.17;;;0.83;;
7289;SDS011;63176;52.678;13.250;2023-03-12T00:22:36;0.68;;;0.68;;
7289;SDS011;63176;52.678;13.250;2023-03-12T00:25:02;0.87;;;0.87;;
7289;SDS011;63176;52.678;13.250;2023-03-12T00:27:28;2.90;;;0.60;;
7289;SDS011;63176;52.678;13.250;2023-03-12T00:29:53;5.10;;;1.10;;
7289;SDS011;63176;52.678;13.250;2023-03-12T00:32:19;0.60;;;0.60;;
7289;SDS011;63176;52.678;13.250;2023-03-12T00:34:49;1.77;;;0.60;;
7289;SDS011;63176;52.678;13.250;2023-03-12T00:37:19;1.33;;;1.10;;
7289;SDS011;63176;52.678;13.250;2023-03-12T00:39:45;0.80;;;0.65;;
7289;SDS011;63176;52.678;13.250;2023-03-12T00:42:11;0.83;;;0.60;;
7289;SDS011;63176;52.678;13.250;2023-03-12T00:44:36;0.80;;;0.67;;
7289;SDS011;63176;52.678;13.250;2023-03-12T00:47:02;1.60;;;0.90;;
7289;SDS011;63176;52.678;13.250;2023-03-12T00:49:28;1.80;;;0.73;;
7289;SDS011;63176;52.678;13.250;2023-03-12T00:51:54;4.23;;;0.50;;
7289;SDS011;63176;52.678;13.250;2023-03-12T00:54:20;0.80;;;0.80;;
7289;SDS011;63176;52.678;13.250;2023-03-12T00:56:45;0.53;;;0.53;;
7289;SDS011;63176;52.678;13.250;2023-03-12T00:59:14;0.93;;;0.67;;
7289;SDS011;63176;52.678;13.250;2023-03-12T01:01:41;1.25;;;0.68;;
7289;SDS011;63176;52.678;13.250;2023-03-12T01:04:07;1.33;;;0.70;;
7289;SDS011;63176;52.678;13.250;2023-03-12T01:06:33;4.73;;;0.67;;
7289;SDS011;63176;52.678;13.250;2023-03-12T01:09:00;1.95;;;0.90;;
7289;SDS011;63176;52.678;13.250;2023-03-12T01:11:27;0.60;;;0.60;;
7289;SDS011;63176;52.678;13.250;2023-03-12T01:13:52;1.40;;;0.77;;
7289;SDS011;63176;52.678;13.250;2023-03-12T01:16:18;0.63;;;0.63;;
7289;SDS011;63176;52.678;13.250;2023-03-12T01:18:44;2.00;;;0.70;;
7289;SDS011;63176;52.678;13.250;2023-03-12T01:21:09;2.20;;;1.30;;
7289;SDS011;63176;52.678;13.250;2023-03-12T01:23:36;2.97;;;1.00;;
7289;SDS011;63176;52.678;13.250;2023-03-12T01:26:02;1.17;;;0.77;;
7289;SDS011;63176;52.678;13.250;2023-03-12T01:28:27;2.73;;;0.70;;
7289;SDS011;63176;52.678;13.250;2023-03-12T01:30:53;1.50;;;0.53;;
7289;SDS011;63176;52.678;13.250;2023-03-12T01:33:19;1.23;;;0.73;;
7289;SDS011;63176;52.678;13.250;2023-03-12T01:35:46;1.00;;;0.63;;
7289;SDS011;63176;52.678;13.250;2023-03-12T01:38:14;1.45;;;0.73;;
7289;SDS011;63176;52.678;13.250;2023-03-12T01:40:40;1.40;;;0.95;;
7289;SDS011;63176;52.678;13.250;2023-03-12T01:43:21;0.85;;;0.77;;
7289;SDS011;63176;52.678;13.250;2023-03-12T01:48:47;1.38;;;1.15;;
7289;SDS011;63176;52.678;13.250;2023-03-12T01:51:17;1.00;;;0.70;;
7289;SDS011;63176;52.678;13.250;2023-03-12T01:53:46;5.40;;;0.80;;
7289;SDS011;63176;52.678;13.250;2023-03-12T01:56:15;1.10;;;0.80;;
7289;SDS011;63176;52.678;13.250;2023-03-12T01:58:43;1.95;;;0.60;;
7289;SDS011;63176;52.678;13.250;2023-03-12T02:01:13;1.10;;;0.73;;
7289;SDS011;63176;52.678;13.250;2023-03-12T02:03:41;0.70;;;0.70;;
7289;SDS011;63176;52.678;13.250;2023-03-12T02:06:10;2.05;;;1.15;;
7289;SDS011;63176;52.678;13.250;2023-03-12T02:08:39;1.27;;;0.75;;
7289;SDS011;63176;52.678;13.250;2023-03-12T02:11:08;2.15;;;0.82;;
7289;SDS011;63176;52.678;13.250;2023-03-12T02:13:34;2.15;;;0.95;;
7289;SDS011;63176;52.678;13.250;2023-03-12T02:16:00;0.80;;;0.60;;
7289;SDS011;63176;52.678;13.250;2023-03-12T02:18:26;1.30;;;1.03;;
7289;SDS011;63176;52.678;13.250;2023-03-12T02:26:30;1.15;;;0.75;;
7289;SDS011;63176;52.678;13.250;2023-03-12T02:28:58;0.88;;;0.80;;
7289;SDS011;63176;52.678;13.250;2023-03-12T02:31:25;4.35;;;1.30;;
7289;SDS011;63176;52.678;13.250;2023-03-12T02:33:57;1.90;;;0.73;;
7289;SDS011;63176;52.678;13.250;2023-03-12T02:36:24;1.70;;;1.08;;
7289;SDS011;63176;52.678;13.250;2023-03-12T02:38:52;1.08;;;0.90;;
7289;SDS011;63176;52.678;13.250;2023-03-12T02:41:23;0.70;;;0.63;;
7289;SDS011;63176;52.678;13.250;2023-03-12T02:44:00;1.38;;;0.93;;
7289;SDS011;63176;52.678;13.250;2023-03-12T02:46:27;6.38;;;1.02;;
7289;SDS011;63176;52.678;13.250;2023-03-12T02:48:58;2.03;;;0.88;;
7289;SDS011;63176;52.678;13.250;2023-03-12T02:51:25;0.98;;;0.80;;
7289;SDS011;63176;52.678;13.250;2023-03-12T02:53:50;7.10;;;1.50;;
7289;SDS011;63176;52.678;13.250;2023-03-12T02:56:19;0.98;;;0.85;;
7289;SDS011;63176;52.678;13.250;2023-03-12T02:58:46;1.02;;;0.93;;
7289;SDS011;63176;52.678;13.250;2023-03-12T03:01:12;1.65;;;0.73;;
7289;SDS011;63176;52.678;13.250;2023-03-12T03:03:38;0.60;;;0.60;;
7289;SDS011;63176;52.678;13.250;2023-03-12T03:06:04;1.80;;;1.00;;
7289;SDS011;63176;52.678;13.250;2023-03-12T03:08:29;2.50;;;0.90;;
7289;SDS011;63176;52.678;13.250;2023-03-12T03:10:55;0.80;;;0.80;;
7289;SDS011;63176;52.678;13.250;2023-03-12T03:13:21;1.10;;;0.80;;
7289;SDS011;63176;52.678;13.250;2023-03-12T03:15:46;1.37;;;1.03;;
7289;SDS011;63176;52.678;13.250;2023-03-12T03:18:12;2.17;;;1.00;;
7289;SDS011;63176;52.678;13.250;2023-03-12T03:20:38;2.47;;;1.00;;
7289;SDS011;63176;52.678;13.250;2023-03-12T03:23:03;1.60;;;1.27;;
7289;SDS011;63176;52.678;13.250;2023-03-12T03:25:29;0.70;;;0.60;;
7289;SDS011;63176;52.678;13.250;2023-03-12T03:27:54;1.37;;;0.80;;
7289;SDS011;63176;52.678;13.250;2023-03-12T03:30:20;3.73;;;1.00;;
7289;SDS011;63176;52.678;13.250;2023-03-12T03:32:47;2.17;;;1.00;;
7289;SDS011;63176;52.678;13.250;2023-03-12T03:35:14;1.27;;;1.17;;
7289;SDS011;63176;52.678;13.250;2023-03-12T03:37:39;1.30;;;1.10;;
7289;SDS011;63176;52.678;13.250;2023-03-12T03:40:05;1.40;;;1.00;;
7289;SDS011;63176;52.678;13.250;2023-03-12T03:42:35;3.50;;;1.10;;
7289;SDS011;63176;52.678;13.250;2023-03-12T03:45:01;1.30;;;1.20;;
7289;SDS011;63176;52.678;13.250;2023-03-12T03:47:27;1.33;;;0.90;;
7289;SDS011;63176;52.678;13.250;2023-03-12T03:49:52;0.80;;;0.70;;
7289;SDS011;63176;52.678;13.250;2023-03-12T03:52:18;1.23;;;1.13;;
7289;SDS011;63176;52.678;13.250;2023-03-12T03:54:43;1.30;;;1.20;;
7289;SDS011;63176;52.678;13.250;2023-03-12T03:57:09;0.87;;;0.80;;
7289;SDS011;63176;52.678;13.250;2023-03-12T03:59:35;1.07;;;0.90;;
7289;SDS011;63176;52.678;13.250;2023-03-12T04:02:00;4.10;;;1.40;;
7289;SDS011;63176;52.678;13.250;2023-03-12T04:04:26;1.60;;;1.30;;
7289;SDS011;63176;52.678;13.250;2023-03-12T04:06:52;3.05;;;0.80;;
7289;SDS011;63176;52.678;13.250;2023-03-12T04:09:18;0.90;;;0.90;;
7289;SDS011;63176;52.678;13.250;2023-03-12T04:11:44;3.47;;;1.03;;
7289;SDS011;63176;52.678;13.250;2023-03-12T04:14:09;1.17;;;1.10;;
7289;SDS011;63176;52.678;13.250;2023-03-12T04:16:35;1.40;;;1.30;;
7289;SDS011;63176;52.678;13.250;2023-03-12T04:19:00;2.07;;;1.20;;
7289;SDS011;63176;52.678;13.250;2023-03-12T04:21:26;2.40;;;1.10;;
7289;SDS011;63176;52.678;13.250;2023-03-12T04:23:52;3.53;;;1.00;;
7289;SDS011;63176;52.678;13.250;2023-03-12T04:26:17;1.70;;;1.23;;
7289;SDS011;63176;52.678;13.250;2023-03-12T04:28:44;1.00;;;0.90;;
7289;SDS011;63176;52.678;13.250;2023-03-12T04:31:10;3.17;;;1.07;;
7289;SDS011;63176;52.678;13.250;2023-03-12T04:33:36;2.15;;;1.00;;
7289;SDS011;63176;52.678;13.250;2023-03-12T04:36:03;1.95;;;1.30;;
7289;SDS011;63176;52.678;13.250;2023-03-12T04:38:30;2.22;;;1.40;;
7289;SDS011;63176;52.678;13.250;2023-03-12T04:40:56;4.23;;;1.30;;
7289;SDS011;63176;52.678;13.250;2023-03-12T04:43:23;3.92;;;1.52;;
7289;SDS011;63176;52.678;13.250;2023-03-12T04:45:48;3.00;;;0.90;;
7289;SDS011;63176;52.678;13.250;2023-03-12T04:48:14;1.20;;;0.97;;
7289;SDS011;63176;52.678;13.250;2023-03-12T04:50:39;3.13;;;1.40;;
7289;SDS011;63176;52.678;13.250;2023-03-12T04:53:05;1.77;;;1.57;;
7289;SDS011;63176;52.678;13.250;2023-03-12T04:55:31;1.73;;;1.17;;
7289;SDS011;63176;52.678;13.250;2023-03-12T04:57:56;3.00;;;1.10;;
7289;SDS011;63176;52.678;13.250;2023-03-12T05:00:22;1.90;;;1.27;;
7289;SDS011;63176;52.678;13.250;2023-03-12T05:02:48;0.83;;;0.83;;
7289;SDS011;63176;52.678;13.250;2023-03-12T05:05:13;8.53;;;1.40;;
7289;SDS011;63176;52.678;13.250;2023-03-12T05:07:39;2.97;;;1.40;;
7289;SDS011;63176;52.678;13.250;2023-03-12T05:10:04;7.20;;;2.00;;
7289;SDS011;63176;52.678;13.250;2023-03-12T05:12:31;1.55;;;1.10;;
7289;SDS011;63176;52.678;13.250;2023-03-12T05:14:56;2.40;;;1.70;;
7289;SDS011;63176;52.678;13.250;2023-03-12T05:17:22;3.23;;;1.10;;
7289;SDS011;63176;52.678;13.250;2023-03-12T05:19:47;4.10;;;1.60;;
7289;SDS011;63176;52.678;13.250;2023-03-12T05:22:13;2.70;;;1.73;;
7289;SDS011;63176;52.678;13.250;2023-03-12T05:24:39;2.03;;;1.37;;
7289;SDS011;63176;52.678;13.250;2023-03-12T05:27:04;2.47;;;1.63;;
7289;SDS011;63176;52.678;13.250;2023-03-12T05:29:32;2.75;;;1.30;;
7289;SDS011;63176;52.678;13.250;2023-03-12T05:31:59;2.20;;;1.60;;
7289;SDS011;63176;52.678;13.250;2023-03-12T05:34:29;1.80;;;1.15;;
7289;SDS011;63176;52.678;13.250;2023-03-12T05:36:56;3.17;;;1.60;;
7289;SDS011;63176;52.678;13.250;2023-03-12T05:39:22;4.32;;;1.10;;
7289;SDS011;63176;52.678;13.250;2023-03-12T05:41:48;1.83;;;1.60;;
7289;SDS011;63176;52.678;13.250;2023-03-12T05:44:14;3.47;;;1.57;;
7289;SDS011;63176;52.678;13.250;2023-03-12T05:46:41;5.97;;;2.22;;
7289;SDS011;63176;52.678;13.250;2023-03-12T05:49:07;4.25;;;1.67;;
7289;SDS011;63176;52.678;13.250;2023-03-12T05:51:33;1.63;;;1.50;;
7289;SDS011;63176;52.678;13.250;2023-03-12T05:54:00;4.45;;;1.80;;
7289;SDS011;63176;52.678;13.250;2023-03-12T05:56:26;1.88;;;1.50;;
7289;SDS011;63176;52.678;13.250;2023-03-12T05:58:52;3.15;;;1.23;;
7289;SDS011;63176;52.678;13.250;2023-03-12T06:01:22;3.70;;;1.50;;
7289;SDS011;63176;52.678;13.250;2023-03-12T06:03:50;1.40;;;1.10;;
7289;SDS011;63176;52.678;13.250;2023-03-12T06:06:16;2.73;;;1.30;;
7289;SDS011;63176;52.678;13.250;2023-03-12T06:08:42;3.05;;;1.70;;
7289;SDS011;63176;52.678;13.250;2023-03-12T06:11:08;2.03;;;1.70;;
7289;SDS011;63176;52.678;13.250;2023-03-12T06:13:34;1.70;;;1.50;;
7289;SDS011;63176;52.678;13.250;2023-03-12T06:16:01;1.90;;;1.33;;
7289;SDS011;63176;52.678;13.250;2023-03-12T06:18:28;3.47;;;1.67;;
7289;SDS011;63176;52.678;13.250;2023-03-12T06:20:54;4.07;;;2.30;;
7289;SDS011;63176;52.678;13.250;2023-03-12T06:23:20;2.20;;;1.83;;
7289;SDS011;63176;52.678;13.250;2023-03-12T06:25:46;2.70;;;1.97;;
7289;SDS011;63176;52.678;13.250;2023-03-12T06:28:11;3.43;;;2.13;;
7289;SDS011;63176;52.678;13.250;2023-03-12T06:30:37;2.10;;;1.47;;
7289;SDS011;63176;52.678;13.250;2023-03-12T06:33:02;2.47;;;2.20;;
7289;SDS011;63176;52.678;13.250;2023-03-12T06:35:31;2.17;;;1.38;;
7289;SDS011;63176;52.678;13.250;2023-03-12T06:37:56;1.90;;;1.70;;
7289;SDS011;63176;52.678;13.250;2023-03-12T06:40:22;5.73;;;2.57;;
7289;SDS011;63176;52.678;13.250;2023-03-12T06:42:48;2.20;;;1.53;;
7289;SDS011;63176;52.678;13.250;2023-03-12T06:45:13;2.33;;;1.60;;
7289;SDS011;63176;52.678;13.250;2023-03-12T06:47:39;3.27;;;1.70;;
7289;SDS011;63176;52.678;13.250;2023-03-12T06:50:04;1.73;;;1.50;;
7289;SDS011;63176;52.678;13.250;2023-03-12T06:52:30;3.47;;;1.90;;
7289;SDS011;63176;52.678;13.250;2023-03-12T06:54:56;1.63;;;1.23;;
7289;SDS011;63176;52.678;13.250;2023-03-12T06:57:22;3.83;;;1.17;;
7289;SDS011;63176;52.678;13.250;2023-03-12T06:59:48;7.10;;;2.20;;
7289;SDS011;63176;52.678;13.250;2023-03-12T07:02:13;1.80;;;1.40;;
7289;SDS011;63176;52.678;13.250;2023-03-12T07:04:39;4.37;;;1.90;;
7289;SDS011;63176;52.678;13.250;2023-03-12T07:07:05;1.50;;;1.40;;
7289;SDS011;63176;52.678;13.250;2023-03-12T07:09:32;1.08;;;1.05;;
7289;SDS011;63176;52.678;13.250;2023-03-12T07:11:58;2.97;;;1.73;;
7289;SDS011;63176;52.678;13.250;2023-03-12T07:14:23;1.77;;;1.40;;
7289;SDS011;63176;52.678;13.250;2023-03-12T07:16:49;2.90;;;2.07;;
7289;SDS011;63176;52.678;13.250;2023-03-12T07:19:15;1.70;;;1.37;;
7289;SDS011;63176;52.678;13.250;2023-03-12T07:21:43;1.40;;;1.30;;
7289;SDS011;63176;52.678;13.250;2023-03-12T07:24:08;1.37;;;1.17;;
7289;SDS011;63176;52.678;13.250;2023-03-12T07:26:34;2.03;;;1.40;;
7289;SDS011;63176;52.678;13.250;2023-03-12T07:29:01;1.57;;;1.40;;
7289;SDS011;63176;52.678;13.250;2023-03-12T07:31:27;1.67;;;1.58;;
7289;SDS011;63176;52.678;13.250;2023-03-12T07:33:53;2.63;;;1.83;;
7289;SDS011;63176;52.678;13.250;2023-03-12T07:36:19;2.10;;;1.43;;
7289;SDS011;63176;52.678;13.250;2023-03-12T07:38:44;5.57;;;1.97;;
7289;SDS011;63176;52.678;13.250;2023-03-12T07:41:10;4.77;;;1.60;;
7289;SDS011;63176;52.678;13.250;2023-03-12T07:43:36;3.23;;;1.60;;
7289;SDS011;63176;52.678;13.250;2023-03-12T07:46:01;1.13;;;1.00;;
7289;SDS011;63176;52.678;13.250;2023-03-12T07:48:27;1.67;;;1.40;;
7289;SDS011;63176;52.678;13.250;2023-03-12T07:50:53;1.93;;;1.37;;
7289;SDS011;63176;52.678;13.250;2023-03-12T07:53:18;2.47;;;1.50;;
7289;SDS011;63176;52.678;13.250;2023-03-12T07:55:44;1.77;;;1.30;;
7289;SDS011;63176;52.678;13.250;2023-03-12T07:58:10;2.67;;;1.77;;
7289;SDS011;63176;52.678;13.250;2023-03-12T08:00:39;2.95;;;2.75;;
7289;SDS011;63176;52.678;13.250;2023-03-12T08:03:05;1.50;;;1.07;;
7289;SDS011;63176;52.678;13.250;2023-03-12T08:05:31;3.20;;;1.80;;
7289;SDS011;63176;52.678;13.250;2023-03-12T08:07:56;3.10;;;1.80;;
7289;SDS011;63176;52.678;13.250;2023-03-12T08:10:22;4.73;;;1.70;;
7289;SDS011;63176;52.678;13.250;2023-03-12T08:12:48;2.23;;;1.90;;
7289;SDS011;63176;52.678;13.250;2023-03-12T08:15:14;4.40;;;1.30;;
7289;SDS011;63176;52.678;13.250;2023-03-12T08:17:40;2.53;;;1.23;;
7289;SDS011;63176;52.678;13.250;2023-03-12T08:20:06;1.60;;;1.50;;
7289;SDS011;63176;52.678;13.250;2023-03-12T08:22:34;1.63;;;1.20;;
7289;SDS011;63176;52.678;13.250;2023-03-12T08:25:00;1.60;;;1.45;;
7289;SDS011;63176;52.678;13.250;2023-03-12T08:27:26;2.03;;;1.40;;
7289;SDS011;63176;52.678;13.250;2023-03-12T08:29:52;4.17;;;1.73;;
7289;SDS011;63176;52.678;13.250;2023-03-12T08:32:18;2.27;;;1.57;;
7289;SDS011;63176;52.678;13.250;2023-03-12T08:34:43;1.40;;;1.17;;
7289;SDS011;63176;52.678;13.250;2023-03-12T08:37:09;3.47;;;1.27;;
7289;SDS011;63176;52.678;13.250;2023-03-12T08:39:35;1.97;;;1.40;;
7289;SDS011;63176;52.678;13.250;2023-03-12T08:42:00;1.73;;;1.27;;
7289;SDS011;63176;52.678;13.250;2023-03-12T08:44:26;3.47;;;1.90;;
7289;SDS011;63176;52.678;13.250;2023-03-12T08:46:52;1.47;;;1.33;;
7289;SDS011;63176;52.678;13.250;2023-03-12T08:49:19;2.83;;;1.47;;
7289;SDS011;63176;52.678;13.250;2023-03-12T08:51:45;0.93;;;0.93;;
7289;SDS011;63176;52.678;13.250;2023-03-12T08:54:11;1.98;;;1.80;;
7289;SDS011;63176;52.678;13.250;2023-03-12T08:56:37;1.33;;;1.23;;
7289;SDS011;63176;52.678;13.250;2023-03-12T08:59:06;7.57;;;1.85;;
7289;SDS011;63176;52.678;13.250;2023-03-12T09:01:33;1.70;;;1.40;;
7289;SDS011;63176;52.678;13.250;2023-03-12T09:03:58;2.53;;;1.40;;
7289;SDS011;63176;52.678;13.250;2023-03-12T09:06:26;1.40;;;1.30;;
7289;SDS011;63176;52.678;13.250;2023-03-12T09:08:52;2.80;;;1.50;;
7289;SDS011;63176;52.678;13.250;2023-03-12T09:11:17;3.53;;;1.27;;
7289;SDS011;63176;52.678;13.250;2023-03-12T09:13:43;1.73;;;1.20;;
7289;SDS011;63176;52.678;13.250;2023-03-12T09:16:09;4.40;;;1.35;;
7289;SDS011;63176;52.678;13.250;2023-03-12T09:18:35;1.50;;;1.10;;
7289;SDS011;63176;52.678;13.250;2023-03-12T09:21:00;7.10;;;1.47;;
7289;SDS011;63176;52.678;13.250;2023-03-12T09:23:27;3.20;;;1.40;;
7289;SDS011;63176;52.678;13.250;2023-03-12T09:25:53;2.28;;;1.38;;
7289;SDS011;63176;52.678;13.250;2023-03-12T09:28:19;1.58;;;0.98;;
7289;SDS011;63176;52.678;13.250;2023-03-12T09:30:45;1.55;;;1.33;;
7289;SDS011;63176;52.678;13.250;2023-03-12T09:33:11;4.77;;;1.10;;
7289;SDS011;63176;52.678;13.250;2023-03-12T09:35:39;1.08;;;0.70;;
7289;SDS011;63176;52.678;13.250;2023-03-12T09:38:05;1.30;;;1.20;;
7289;SDS011;63176;52.678;13.250;2023-03-12T09:40:31;1.80;;;1.17;;
7289;SDS011;63176;52.678;13.250;2023-03-12T09:45:43;1.50;;;1.40;;
7289;SDS011;63176;52.678;13.250;2023-03-12T09:48:18;1.30;;;1.20;;
7289;SDS011;63176;52.678;13.250;2023-03-12T09:50:59;3.60;;;1.35;;
7289;SDS011;63176;52.678;13.250;2023-03-12T09:53:56;2.25;;;1.50;;
7289;SDS011;63176;52.678;13.250;2023-03-12T09:56:24;3.00;;;1.70;;
7289;SDS011;63176;52.678;13.250;2023-03-12T09:58:51;2.85;;;1.52;;
7289;SDS011;63176;52.678;13.250;2023-03-12T10:04:06;7.68;;;1.30;;
7289;SDS011;63176;52.678;13.250;2023-03-12T10:06:48;4.03;;;1.77;;
7289;SDS011;63176;52.678;13.250;2023-03-12T10:14:58;3.53;;;0.82;;
7289;SDS011;63176;52.678;13.250;2023-03-12T10:25:30;2.20;;;0.70;;
7289;SDS011;63176;52.678;13.250;2023-03-12T10:28:05;8.25;;;0.85;;
7289;SDS011;63176;52.678;13.250;2023-03-12T10:30:40;7.85;;;0.85;;
7289;SDS011;63176;52.678;13.250;2023-03-12T10:33:14;0.93;;;0.60;;
7289;SDS011;63176;52.678;13.250;2023-03-12T10:35:41;1.45;;;0.70;;
7289;SDS011;63176;52.678;13.250;2023-03-12T10:38:16;3.50;;;0.87;;
7289;SDS011;63176;52.678;13.250;2023-03-12T10:40:46;1.00;;;0.75;;
7289;SDS011;63176;52.678;13.250;2023-03-12T10:43:12;4.20;;;1.27;;
7289;SDS011;63176;52.678;13.250;2023-03-12T10:48:38;2.38;;;0.95;;
7289;SDS011;63176;52.678;13.250;2023-03-12T10:51:05;1.30;;;0.80;;
7289;SDS011;63176;52.678;13.250;2023-03-12T10:53:33;7.07;;;1.30;;
7289;SDS011;63176;52.678;13.250;2023-03-12T10:58:34;1.63;;;0.88;;
7289;SDS011;63176;52.678;13.250;2023-03-12T11:01:06;3.97;;;1.40;;
7289;SDS011;63176;52.678;13.250;2023-03-12T11:03:46;2.92;;;1.20;;
7289;SDS011;63176;52.678;13.250;2023-03-12T11:06:33;4.53;;;1.02;;
7289;SDS011;63176;52.678;13.250;2023-03-12T11:11:39;2.58;;;1.40;;
7289;SDS011;63176;52.678;13.250;2023-03-12T11:14:18;1.70;;;0.97;;
7289;SDS011;63176;52.678;13.250;2023-03-12T11:16:47;4.38;;;1.73;;
7289;SDS011;63176;52.678;13.250;2023-03-12T11:19:14;2.80;;;1.52;;
7289;SDS011;63176;52.678;13.250;2023-03-12T11:21:59;1.40;;;1.00;;
7289;SDS011;63176;52.678;13.250;2023-03-12T11:24:26;2.15;;;1.20;;
7289;SDS011;63176;52.678;13.250;2023-03-12T11:26:58;1.10;;;1.00;;
7289;SDS011;63176;52.678;13.250;2023-03-12T11:29:44;2.25;;;1.15;;
7289;SDS011;63176;52.678;13.250;2023-03-12T11:34:52;1.00;;;1.00;;
7289;SDS011;63176;52.678;13.250;2023-03-12T11:37:41;1.13;;;0.57;;
7289;SDS011;63176;52.678;13.250;2023-03-12T11:51:25;3.08;;;1.20;;
7289;SDS011;63176;52.678;13.250;2023-03-12T11:54:05;2.45;;;1.40;;
7289;SDS011;63176;52.678;13.250;2023-03-12T11:56:55;4.70;;;1.30;;
7289;SDS011;63176;52.678;13.250;2023-03-12T12:02:29;3.33;;;1.58;;
7289;SDS011;63176;52.678;13.250;2023-03-12T12:07:56;3.30;;;0.82;;
7289;SDS011;63176;52.678;13.250;2023-03-12T12:10:47;1.90;;;1.02;;
7289;SDS011;63176;52.678;13.250;2023-03-12T12:26:12;2.03;;;0.93;;
7289;SDS011;63176;52.678;13.250;2023-03-12T12:28:59;1.08;;;0.98;;
7289;SDS011;63176;52.678;13.250;2023-03-12T12:32:01;0.95;;;0.75;;
7289;SDS011;63176;52.678;13.250;2023-03-12T12:40:02;1.05;;;0.85;;
7289;SDS011;63176;52.678;13.250;2023-03-12T12:45:40;5.25;;;1.10;;
7289;SDS011;63176;52.678;13.250;2023-03-12T12:48:11;1.65;;;1.00;;
7289;SDS011;63176;52.678;13.250;2023-03-12T12:50:38;4.97;;;1.10;;
7289;SDS011;63176;52.678;13.250;2023-03-12T13:01:18;2.05;;;1.10;;
7289;SDS011;63176;52.678;13.250;2023-03-12T13:03:44;1.45;;;1.35;;
7289;SDS011;63176;52.678;13.250;2023-03-12T13:06:11;1.25;;;1.00;;
7289;SDS011;63176;52.678;13.250;2023-03-12T13:14:33;1.50;;;0.95;;
7289;SDS011;63176;52.678;13.250;2023-03-12T13:16:39;1.08;;;0.95;;
7289;SDS011;63176;52.678;13.250;2023-03-12T13:21:45;1.02;;;0.80;;
7289;SDS011;63176;52.678;13.250;2023-03-12T13:24:34;2.92;;;1.17;;
7289;SDS011;63176;52.678;13.250;2023-03-12T13:31:57;2.17;;;0.80;;
7289;SDS011;63176;52.678;13.250;2023-03-12T13:37:00;2.25;;;1.13;;
7289;SDS011;63176;52.678;13.250;2023-03-12T13:39:28;1.00;;;0.85;;
7289;SDS011;63176;52.678;13.250;2023-03-12T13:41:56;1.35;;;1.25;;
7289;SDS011;63176;52.678;13.250;2023-03-12T13:50:12;1.33;;;1.10;;
7289;SDS011;63176;52.678;13.250;2023-03-12T13:57:39;1.25;;;1.15;;
7289;SDS011;63176;52.678;13.250;2023-03-12T14:02:58;1.95;;;1.85;;
7289;SDS011;63176;52.678;13.250;2023-03-12T14:05:28;0.80;;;0.80;;
7289;SDS011;63176;52.678;13.250;2023-03-12T14:08:04;1.40;;;0.70;;
7289;SDS011;63176;52.678;13.250;2023-03-12T14:10:43;0.73;;;0.73;;
7289;SDS011;63176;52.678;13.250;2023-03-12T14:16:55;1.02;;;1.02;;
7289;SDS011;63176;52.678;13.250;2023-03-12T14:19:23;0.70;;;0.70;;
7289;SDS011;63176;52.678;13.250;2023-03-12T14:21:55;2.78;;;0.70;;
7289;SDS011;63176;52.678;13.250;2023-03-12T14:24:26;1.90;;;1.80;;
7289;SDS011;63176;52.678;13.250;2023-03-12T14:26:54;1.45;;;1.30;;
7289;SDS011;63176;52.678;13.250;2023-03-12T14:29:28;1.00;;;0.90;;
7289;SDS011;63176;52.678;13.250;2023-03-12T14:32:02;1.25;;;0.60;;
7289;SDS011;63176;52.678;13.250;2023-03-12T14:34:32;0.60;;;0.55;;
7289;SDS011;63176;52.678;13.250;2023-03-12T14:39:53;1.35;;;0.98;;
7289;SDS011;63176;52.678;13.250;2023-03-12T14:42:47;1.45;;;0.88;;
7289;SDS011;63176;52.678;13.250;2023-03-12T14:45:15;0.80;;;0.80;;
7289;SDS011;63176;52.678;13.250;2023-03-12T14:47:43;0.70;;;0.60;;
7289;SDS011;63176;52.678;13.250;2023-03-12T14:50:25;1.40;;;0.63;;
7289;SDS011;63176;52.678;13.250;2023-03-12T14:52:53;1.70;;;0.70;;
7289;SDS011;63176;52.678;13.250;2023-03-12T14:55:24;0.70;;;0.68;;
7289;SDS011;63176;52.678;13.250;2023-03-12T14:58:03;0.90;;;0.90;;
7289;SDS011;63176;52.678;13.250;2023-03-12T15:00:31;0.75;;;0.73;;
7289;SDS011;63176;52.678;13.250;2023-03-12T15:02:58;1.23;;;0.60;;
7289;SDS011;63176;52.678;13.250;2023-03-12T15:05:28;0.90;;;0.70;;
7289;SDS011;63176;52.678;13.250;2023-03-12T15:07:55;0.80;;;0.70;;
7289;SDS011;63176;52.678;13.250;2023-03-12T15:10:26;0.57;;;0.50;;
7289;SDS011;63176;52.678;13.250;2023-03-12T15:12:54;0.82;;;0.40;;
7289;SDS011;63176;52.678;13.250;2023-03-12T15:18:11;0.80;;;0.55;;
7289;SDS011;63176;52.678;13.250;2023-03-12T15:20:57;0.70;;;0.60;;
7289;SDS011;63176;52.678;13.250;2023-03-12T15:23:26;0.90;;;0.63;;
7289;SDS011;63176;52.678;13.250;2023-03-12T15:26:10;0.95;;;0.50;;
7289;SDS011;63176;52.678;13.250;2023-03-12T15:28:38;1.15;;;0.80;;
7289;SDS011;63176;52.678;13.250;2023-03-12T15:31:06;0.60;;;0.60;;
7289;SDS011;63176;52.678;13.250;2023-03-12T15:33:40;1.73;;;0.80;;
7289;SDS011;63176;52.678;13.250;2023-03-12T15:38:42;2.50;;;0.90;;
7289;SDS011;63176;52.678;13.250;2023-03-12T15:41:39;0.70;;;0.70;;
7289;SDS011;63176;52.678;13.250;2023-03-12T15:44:22;2.05;;;0.65;;
7289;SDS011;63176;52.678;13.250;2023-03-12T15:47:05;1.80;;;0.98;;
7289;SDS011;63176;52.678;13.250;2023-03-12T15:49:35;0.60;;;0.60;;
7289;SDS011;63176;52.678;13.250;2023-03-12T15:57:42;1.67;;;1.42;;
7289;SDS011;63176;52.678;13.250;2023-03-12T16:02:45;1.00;;;0.90;;
7289;SDS011;63176;52.678;13.250;2023-03-12T16:05:14;3.38;;;0.95;;
7289;SDS011;63176;52.678;13.250;2023-03-12T16:07:40;1.95;;;1.15;;
7289;SDS011;63176;52.678;13.250;2023-03-12T16:10:06;1.30;;;1.10;;
7289;SDS011;63176;52.678;13.250;2023-03-12T16:12:40;4.63;;;1.42;;
7289;SDS011;63176;52.678;13.250;2023-03-12T16:15:11;3.50;;;1.35;;
7289;SDS011;63176;52.678;13.250;2023-03-12T16:17:39;1.52;;;1.20;;
7289;SDS011;63176;52.678;13.250;2023-03-12T16:20:05;2.27;;;1.13;;
7289;SDS011;63176;52.678;13.250;2023-03-12T16:22:34;1.15;;;1.02;;
7289;SDS011;63176;52.678;13.250;2023-03-12T16:24:59;2.10;;;0.93;;
7289;SDS011;63176;52.678;13.250;2023-03-12T16:27:25;4.83;;;1.30;;
7289;SDS011;63176;52.678;13.250;2023-03-12T16:29:51;2.27;;;1.27;;
7289;SDS011;63176;52.678;13.250;2023-03-12T16:32:16;1.33;;;1.03;;
7289;SDS011;63176;52.678;13.250;2023-03-12T16:34:42;1.40;;;1.30;;
7289;SDS011;63176;52.678;13.250;2023-03-12T16:37:09;1.25;;;1.15;;
7289;SDS011;63176;52.678;13.250;2023-03-12T16:39:36;1.08;;;1.02;;
7289;SDS011;63176;52.678;13.250;2023-03-12T16:42:02;10.20;;;1.35;;
7289;SDS011;63176;52.678;13.250;2023-03-12T16:44:49;0.90;;;0.90;;
7289;SDS011;63176;52.678;13.250;2023-03-12T16:47:15;3.83;;;1.57;;
7289;SDS011;63176;52.678;13.250;2023-03-12T16:49:40;4.67;;;1.23;;
7289;SDS011;63176;52.678;13.250;2023-03-12T16:52:25;3.00;;;1.45;;
7289;SDS011;63176;52.678;13.250;2023-03-12T16:54:52;4.35;;;1.58;;
7289;SDS011;63176;52.678;13.250;2023-03-12T16:59:55;1.35;;;1.25;;
7289;SDS011;63176;52.678;13.250;2023-03-12T17:02:21;2.17;;;1.77;;
7289;SDS011;63176;52.678;13.250;2023-03-12T17:04:47;7.03;;;2.57;;
7289;SDS011;63176;52.678;13.250;2023-03-12T17:07:14;4.95;;;4.10;;
7289;SDS011;63176;52.678;13.250;2023-03-12T17:09:41;2.97;;;2.22;;
7289;SDS011;63176;52.678;13.250;2023-03-12T17:12:10;6.23;;;3.50;;